< Typhoon 200009 2000 Season Typhoon 200011 >
Typhoon 200010 (BILIS)
General InformationTrack Information on Google MapsDetailed Wind InformationList of All Images || Disaster Info.ResourceGoogle EarthGE AnimationAtom FeedGeoJSON
Detalied Best Track (Time Zone = UTC)
Year Month Day Hour Lat. Long. Pressure (hPa) Wind (kt) Class Image Chart
2000 8 18 12 11.5 137.0 1004 0 2 Image Chart
2000 8 18 18 12.5 136.6 1002 0 2 Image Chart
2000 8 19 00 13.4 136.0 1000 0 2 Image Chart
2000 8 19 06 14.6 135.6 996 35 3 Image Chart
2000 8 19 12 15.4 134.8 992 45 3 Image Chart
2000 8 19 18 16.1 133.5 985 50 4 Image Chart
2000 8 20 00 16.4 132.5 980 50 4 Image Chart
2000 8 20 06 16.7 131.8 975 55 4 Image Chart
2000 8 20 12 17.5 130.8 960 70 5 Image Chart
2000 8 20 18 18.2 129.6 945 80 5 Image Chart
2000 8 21 00 18.8 128.3 935 90 5 Image Chart
2000 8 21 06 19.4 127.1 930 90 5 Image Chart
2000 8 21 12 19.7 126.1 920 100 5 Image Chart
2000 8 21 18 20.3 125.1 920 110 5 Image Chart
2000 8 22 00 20.8 124.1 920 110 5 Image Chart
2000 8 22 06 21.5 123.0 920 110 5 Image Chart
2000 8 22 12 22.5 122.0 920 110 5 Image Chart
2000 8 22 15 23.1 121.3 930 100 5 Image Chart
2000 8 22 18 23.6 120.0 950 90 5 Image Chart
2000 8 22 21 23.9 119.4 960 80 5 Image Chart
2000 8 23 00 24.2 118.9 970 65 5 Image Chart
2000 8 23 06 25.2 117.9 985 45 3 Image Chart
2000 8 23 12 25.2 116.5 994 0 2 Image Chart
2000 8 23 18 25.4 116.5 996 0 2 Image Chart
2000 8 24 00 26.0 116.6 998 0 2 Image Chart
2000 8 24 06 27.2 116.5 998 0 2 Image Chart
2000 8 24 12 28.4 116.5 998 0 2 Image Chart
2000 8 24 18 29.1 116.7 1000 0 2 Image Chart
2000 8 25 00 30.2 117.0 1000 0 2 Image Chart
2000 8 25 06 31.6 118.3 1000 0 2 Image Chart
2000 8 25 12 32.0 119.8 1000 0 2 Image Chart
2000 8 25 18 33.3 120.9 1000 0 6 Image Chart
2000 8 26 00 33.8 121.9 1000 0 6 Image Chart
2000 8 26 06 34.4 122.9 1002 0 6 Image Chart
2000 8 26 12 35.4 123.9 1004 0 6 Image Chart
2000 8 26 18 36.1 124.8 1004 0 6 Image Chart
2000 8 27 00 37.2 125.4 1004 0 6 Image Chart
2000 8 27 06 38.0 126.2 1006 0 6 Image Chart
Japan Meteorological Agency Best Track Data | Correction Date : 2001-12-21
< Typhoon 200009 2000 Season Typhoon 200011 >

Help